Time;durP1;ratioP1;P1;durP2;ratioP2;P2;SDS_P1;SDS_P2;PMS_P1;PMS_P2;Temp;Humidity;BMP_temperature;BMP_pressure;BME280_temperature;BME280_humidity;BME280_pressure;Samples;Min_cycle;Max_cycle;Signal;HPM_P1;HPM_P2
2022/01/18 00:00:10;;;;;;;6.63;4.20;;;;;;;;;;2118088;27;20080;-45
2022/01/18 00:01:11;;;;;;;9.65;4.20;;;;;;;;;;2122639;28;20118;-46
2022/01/18 00:02:13;;;;;;;7.20;4.13;;;;;;;;;;2122745;28;20047;-46
2022/01/18 00:03:14;;;;;;;7.53;4.33;;;;;;;;;;2120529;27;20396;-46
2022/01/18 00:04:15;;;;;;;7.10;3.92;;;;;;;;;;2122438;28;20276;-46
2022/01/18 00:05:18;;;;;;;8.13;4.65;;;;;;;;;;2121521;28;20124;-46
2022/01/18 00:06:19;;;;;;;8.20;4.70;;;;;;;;;;2120637;27;20039;-46
2022/01/18 00:07:20;;;;;;;9.13;4.22;;;;;;;;;;2122807;28;20039;-46
2022/01/18 00:08:22;;;;;;;6.78;3.65;;;;;;;;;;2121414;27;20150;-46
2022/01/18 00:09:24;;;;;;;5.32;2.72;;;;;;;;;;2121949;27;20073;-45
2022/01/18 00:10:29;;;;;;;6.50;2.88;;;;;;;;;;2122712;27;20047;-46
2022/01/18 00:11:38;;;;;;;4.80;2.05;;;;;;;;;;2120521;27;20575;-46
2022/01/18 00:12:55;;;;;;;7.60;3.33;;;;;;;;;;2122639;28;20506;-46
2022/01/18 00:14:01;;;;;;;5.55;2.80;;;;;;;;;;2120404;27;20039;-44
2022/01/18 00:15:28;;;;;;;6.38;2.42;;;;;;;;;;2120582;27;20039;-45
2022/01/18 00:16:32;;;;;;;4.72;2.28;;;;;;;;;;2124327;28;20050;-45
2022/01/18 00:17:41;;;;;;;3.33;2.30;;;;;;;;;;2121239;27;20082;-45
2022/01/18 00:18:48;;;;;;;3.78;2.28;;;;;;;;;;2124241;28;20085;-47
2022/01/18 00:19:54;;;;;;;4.07;2.15;;;;;;;;;;2123238;28;20061;-45
2022/01/18 00:21:11;;;;;;;6.30;3.03;;;;;;;;;;2116611;28;20484;-46
2022/01/18 00:22:24;;;;;;;4.78;2.92;;;;;;;;;;2115093;28;20047;-45
2022/01/18 00:23:26;;;;;;;4.45;2.50;;;;;;;;;;2122598;27;20191;-46
2022/01/18 00:24:27;;;;;;;5.32;2.60;;;;;;;;;;2124245;28;20624;-47
2022/01/18 00:25:28;;;;;;;5.45;3.05;;;;;;;;;;2120580;27;20488;-45
2022/01/18 00:26:31;;;;;;;8.55;4.22;;;;;;;;;;2123784;28;20126;-46
2022/01/18 00:27:32;;;;;;;6.20;2.65;;;;;;;;;;2124212;28;20130;-45
2022/01/18 00:28:34;;;;;;;4.67;2.70;;;;;;;;;;2120547;27;20403;-47
2022/01/18 00:29:38;;;;;;;3.42;2.20;;;;;;;;;;2124081;27;20043;-46
2022/01/18 00:31:07;;;;;;;4.72;2.42;;;;;;;;;;2124072;28;20074;-46
2022/01/18 00:32:13;;;;;;;5.13;2.00;;;;;;;;;;2122716;27;20134;-46
2022/01/18 00:33:20;;;;;;;5.25;2.00;;;;;;;;;;2124124;28;20173;-45
2022/01/18 00:34:25;;;;;;;4.30;2.20;;;;;;;;;;2121789;27;20045;-47
2022/01/18 00:35:32;;;;;;;3.90;2.00;;;;;;;;;;2124153;28;20133;-45
2022/01/18 00:36:39;;;;;;;2.70;1.63;;;;;;;;;;2123567;28;20166;-47
2022/01/18 00:37:50;;;;;;;8.45;1.60;;;;;;;;;;2122660;28;20047;-47
2022/01/18 00:38:52;;;;;;;2.15;1.63;;;;;;;;;;2124103;27;20487;-46
2022/01/18 00:39:53;;;;;;;2.45;1.65;;;;;;;;;;2120431;27;20118;-45
2022/01/18 00:40:54;;;;;;;2.97;1.50;;;;;;;;;;2124053;28;20180;-45
2022/01/18 00:41:55;;;;;;;1.70;1.40;;;;;;;;;;2124036;28;20091;-46
2022/01/18 00:42:56;;;;;;;5.45;1.65;;;;;;;;;;2119405;27;20092;-45
2022/01/18 00:43:57;;;;;;;3.78;1.85;;;;;;;;;;2124039;27;20479;-47
2022/01/18 00:44:58;;;;;;;6.20;2.40;;;;;;;;;;2122535;27;20134;-46
2022/01/18 00:45:59;;;;;;;3.57;1.63;;;;;;;;;;2122176;27;20103;-45
2022/01/18 00:47:00;;;;;;;2.35;1.65;;;;;;;;;;2123955;28;20816;-46
2022/01/18 00:48:02;;;;;;;3.13;1.70;;;;;;;;;;2123304;28;20134;-45
2022/01/18 00:49:04;;;;;;;7.03;2.00;;;;;;;;;;2122407;27;20134;-46
2022/01/18 00:50:05;;;;;;;6.38;1.75;;;;;;;;;;2124056;28;20070;-45
2022/01/18 00:51:09;;;;;;;5.50;2.10;;;;;;;;;;2122621;27;20134;-47
2022/01/18 00:52:11;;;;;;;5.05;2.00;;;;;;;;;;2123510;28;20759;-45
2022/01/18 00:53:16;;;;;;;3.08;1.90;;;;;;;;;;2124090;28;20054;-47
2022/01/18 00:54:21;;;;;;;5.05;1.80;;;;;;;;;;2120306;27;20109;-47
2022/01/18 00:55:25;;;;;;;2.83;1.27;;;;;;;;;;2123943;28;20166;-48
2022/01/18 00:56:30;;;;;;;3.30;1.55;;;;;;;;;;2122003;28;20058;-49
2022/01/18 00:57:31;;;;;;;4.97;2.20;;;;;;;;;;2122731;27;20135;-48
2022/01/18 00:58:32;;;;;;;3.25;2.00;;;;;;;;;;2123933;28;20134;-49
2022/01/18 00:59:33;;;;;;;2.90;1.95;;;;;;;;;;2121771;28;20054;-46
2022/01/18 01:00:34;;;;;;;8.45;2.50;;;;;;;;;;2115268;27;20131;-45
2022/01/18 01:01:36;;;;;;;4.63;2.33;;;;;;;;;;2115696;28;20499;-45
2022/01/18 01:02:37;;;;;;;1.80;1.60;;;;;;;;;;2119723;27;20091;-45
2022/01/18 01:03:38;;;;;;;4.32;2.00;;;;;;;;;;2123934;28;20100;-45
2022/01/18 01:04:46;;;;;;;4.40;2.00;;;;;;;;;;2123887;28;20133;-52
2022/01/18 01:05:48;;;;;;;3.58;1.88;;;;;;;;;;2122104;27;20082;-45
2022/01/18 01:06:49;;;;;;;6.73;2.67;;;;;;;;;;2124150;28;20514;-48
2022/01/18 01:07:50;;;;;;;3.08;2.03;;;;;;;;;;2121456;27;20463;-48
2022/01/18 01:09:05;;;;;;;3.70;2.33;;;;;;;;;;2123375;27;20492;-48
2022/01/18 01:10:06;;;;;;;6.63;3.00;;;;;;;;;;2123832;27;20528;-48
2022/01/18 01:11:08;;;;;;;4.43;2.33;;;;;;;;;;2120295;27;20400;-47
2022/01/18 01:12:12;;;;;;;4.35;2.45;;;;;;;;;;2123939;28;20098;-49
2022/01/18 01:13:14;;;;;;;4.30;2.25;;;;;;;;;;2123462;28;20126;-50
2022/01/18 01:14:20;;;;;;;2.80;2.08;;;;;;;;;;2122273;27;20047;-46
2022/01/18 01:15:23;;;;;;;3.22;2.08;;;;;;;;;;2123696;28;20550;-46
2022/01/18 01:16:49;;;;;;;3.90;2.20;;;;;;;;;;2120680;27;20126;-45
2022/01/18 01:18:06;;;;;;;3.90;2.72;;;;;;;;;;2124078;28;20067;-44
2022/01/18 01:19:21;;;;;;;3.47;1.77;;;;;;;;;;2121753;28;20062;-45
2022/01/18 01:32:52;;;;;;;5.43;2.03;;;;;;;;;;2123791;28;20177;-46
2022/01/18 01:34:34;;;;;;;5.80;1.83;;;;;;;;;;2119869;27;20107;-46
2022/01/18 01:36:02;;;;;;;3.97;1.67;;;;;;;;;;2123647;28;20085;-45
2022/01/18 01:42:43;;;;;;;4.20;2.47;;;;;;;;;;2120118;27;20039;-45
2022/01/18 01:44:02;;;;;;;3.60;2.38;;;;;;;;;;2123632;28;20406;-46
2022/01/18 01:45:04;;;;;;;7.05;2.70;;;;;;;;;;2120027;27;20043;-46
2022/01/18 01:46:05;;;;;;;4.85;2.95;;;;;;;;;;2123631;28;20130;-45
2022/01/18 01:47:06;;;;;;;7.50;2.93;;;;;;;;;;2123650;28;20053;-45
2022/01/18 01:48:08;;;;;;;4.68;2.53;;;;;;;;;;2120141;27;20291;-45
2022/01/18 01:49:13;;;;;;;3.63;2.22;;;;;;;;;;2123544;27;20516;-45
2022/01/18 01:50:18;;;;;;;3.60;2.30;;;;;;;;;;2121438;28;20130;-45
2022/01/18 01:51:20;;;;;;;3.70;2.35;;;;;;;;;;2121232;27;20134;-46
2022/01/18 01:52:22;;;;;;;3.28;2.35;;;;;;;;;;2123490;28;20122;-45
2022/01/18 01:53:24;;;;;;;3.75;2.28;;;;;;;;;;2120104;27;20535;-45
2022/01/18 01:54:25;;;;;;;3.60;2.17;;;;;;;;;;2122239;27;20117;-45
2022/01/18 01:55:27;;;;;;;3.05;1.65;;;;;;;;;;2123480;28;20445;-45
2022/01/18 01:56:28;;;;;;;2.42;1.42;;;;;;;;;;2121276;27;20087;-45
2022/01/18 01:57:29;;;;;;;1.60;1.35;;;;;;;;;;2123580;28;20066;-45
2022/01/18 01:58:31;;;;;;;2.80;1.45;;;;;;;;;;2124266;28;20514;-45
2022/01/18 01:59:32;;;;;;;2.65;1.40;;;;;;;;;;2120615;27;20043;-49
2022/01/18 02:00:33;;;;;;;2.53;1.30;;;;;;;;;;2123632;28;20118;-49
2022/01/18 02:01:42;;;;;;;2.60;1.40;;;;;;;;;;2122903;28;20118;-50
2022/01/18 02:02:43;;;;;;;2.45;1.33;;;;;;;;;;2114955;28;20092;-51
2022/01/18 02:03:44;;;;;;;7.15;1.63;;;;;;;;;;2115123;28;20047;-48
2022/01/18 02:04:46;;;;;;;3.90;1.40;;;;;;;;;;2119866;27;20047;-48
2022/01/18 02:05:47;;;;;;;3.47;1.30;;;;;;;;;;2123395;28;20047;-50
2022/01/18 02:06:48;;;;;;;3.30;1.42;;;;;;;;;;2123058;28;20078;-51
2022/01/18 02:07:49;;;;;;;3.30;1.38;;;;;;;;;;2120799;27;20562;-48
2022/01/18 02:08:51;;;;;;;5.80;1.55;;;;;;;;;;2123336;27;20491;-49
2022/01/18 02:09:52;;;;;;;2.47;1.30;;;;;;;;;;2121390;27;20047;-49
2022/01/18 02:10:54;;;;;;;4.68;1.42;;;;;;;;;;2120986;27;20526;-48
2022/01/18 02:11:56;;;;;;;4.45;1.55;;;;;;;;;;2123400;28;20433;-49
2022/01/18 02:12:57;;;;;;;2.70;1.50;;;;;;;;;;2122537;28;20130;-49
2022/01/18 02:13:59;;;;;;;4.40;1.20;;;;;;;;;;2115963;27;20605;-48
2022/01/18 02:15:10;;;;;;;4.05;1.50;;;;;;;;;;2115266;28;20050;-48
2022/01/18 02:21:46;;;;;;;3.35;1.40;;;;;;;;;;2120665;27;20161;-48
2022/01/18 02:21:48;;;;;;;3.20;1.25;;;;;;;;;;2120048;27;20039;-45
2022/01/18 02:22:49;;;;;;;2.97;1.48;;;;;;;;;;2123730;28;20130;-45
2022/01/18 02:23:50;;;;;;;2.15;1.40;;;;;;;;;;2121952;27;20476;-46
2022/01/18 02:24:51;;;;;;;3.05;1.10;;;;;;;;;;2119805;27;20055;-45
2022/01/18 02:25:52;;;;;;;3.17;1.48;;;;;;;;;;2123928;28;20122;-47
2022/01/18 02:26:53;;;;;;;2.13;1.33;;;;;;;;;;2120799;27;20403;-47
2022/01/18 02:27:54;;;;;;;5.55;1.30;;;;;;;;;;2122035;28;20081;-47
2022/01/18 02:28:58;;;;;;;3.45;1.48;;;;;;;;;;2123325;27;20051;-48
2022/01/18 02:29:58;;;;;;;3.47;1.65;;;;;;;;;;2120083;27;20051;-47
2022/01/18 02:31:00;;;;;;;3.30;1.60;;;;;;;;;;2122349;28;20096;-46
2022/01/18 02:32:02;;;;;;;2.53;1.48;;;;;;;;;;2123267;28;20051;-45
2022/01/18 02:33:03;;;;;;;;;;;;;;;;;;2120332;27;20039;-45
2022/01/18 02:34:05;;;;;;;3.38;1.38;;;;;;;;;;2123327;27;19919;-46
2022/01/18 02:35:07;;;;;;;3.80;1.55;;;;;;;;;;2122465;28;20134;-44
2022/01/18 02:36:09;;;;;;;4.32;1.70;;;;;;;;;;2120474;27;20043;-45
2022/01/18 02:37:14;;;;;;;3.97;1.60;;;;;;;;;;2123514;28;20123;-45
2022/01/18 02:38:14;;;;;;;3.47;1.42;;;;;;;;;;2121325;27;20066;-45
2022/01/18 02:39:19;;;;;;;7.80;1.67;;;;;;;;;;2122656;27;20210;-47
2022/01/18 02:40:20;;;;;;;2.75;1.33;;;;;;;;;;2123442;28;20063;-50
2022/01/18 02:41:25;;;;;;;4.05;1.50;;;;;;;;;;2118866;27;20092;-45
2022/01/18 02:42:30;;;;;;;3.13;1.30;;;;;;;;;;2123225;28;20043;-45
2022/01/18 02:43:46;;;;;;;3.97;1.60;;;;;;;;;;2123402;28;20114;-45
2022/01/18 02:44:49;;;;;;;4.07;1.30;;;;;;;;;;2122174;28;20112;-45
2022/01/18 02:45:50;;;;;;;3.30;1.50;;;;;;;;;;2123385;28;20554;-45
2022/01/18 02:46:52;;;;;;;2.80;1.52;;;;;;;;;;2120196;27;20044;-45
2022/01/18 02:47:53;;;;;;;5.55;1.30;;;;;;;;;;2123020;28;20051;-46
2022/01/18 02:48:55;;;;;;;3.90;1.73;;;;;;;;;;2123388;27;20594;-45
2022/01/18 02:49:57;;;;;;;;;;;;;;;;;;2120591;27;20404;-48
2022/01/18 02:50:58;;;;;;;9.40;1.45;;;;;;;;;;2123436;28;19923;-45
2022/01/18 02:52:00;;;;;;;5.57;1.60;;;;;;;;;;2123331;28;20416;-48
2022/01/18 02:53:01;;;;;;;3.47;1.13;;;;;;;;;;2119958;27;20118;-45
2022/01/18 02:54:04;;;;;;;3.28;1.92;;;;;;;;;;2123220;27;20043;-45
2022/01/18 02:55:06;;;;;;;6.28;1.40;;;;;;;;;;2121224;28;20043;-48
2022/01/18 02:56:07;;;;;;;2.97;1.20;;;;;;;;;;2122168;27;20534;-46
2022/01/18 02:57:12;;;;;;;6.68;1.70;;;;;;;;;;2123329;28;20080;-45
2022/01/18 02:58:21;;;;;;;2.72;1.35;;;;;;;;;;2120029;27;20130;-45
2022/01/18 02:59:25;;;;;;;3.53;1.30;;;;;;;;;;2122753;27;20118;-45
2022/01/18 03:00:30;;;;;;;6.60;1.88;;;;;;;;;;2123452;28;20066;-47
2022/01/18 03:04:10;;;;;;;4.38;1.60;;;;;;;;;;2117006;27;20122;-47
2022/01/18 03:05:12;;;;;;;4.33;1.97;;;;;;;;;;2123233;28;20043;-49
2022/01/18 03:06:13;;;;;;;7.03;1.70;;;;;;;;;;2123018;28;20055;-48
2022/01/18 03:07:15;;;;;;;5.33;1.67;;;;;;;;;;2120242;27;20046;-45
2022/01/18 03:08:17;;;;;;;;;;;;;;;;;;2123543;28;20043;-46
2022/01/18 03:09:18;;;;;;;3.03;1.80;;;;;;;;;;2121010;28;20014;-45
2022/01/18 03:10:19;;;;;;;4.35;1.55;;;;;;;;;;2120371;27;20131;-45
2022/01/18 03:11:20;;;;;;;3.63;1.85;;;;;;;;;;2123044;28;20083;-45
2022/01/18 03:12:22;;;;;;;3.45;1.60;;;;;;;;;;2121032;27;20136;-45
2022/01/18 03:13:23;;;;;;;2.75;1.40;;;;;;;;;;2122810;28;20391;-45
2022/01/18 03:14:24;;;;;;;7.57;1.80;;;;;;;;;;2122954;27;20524;-44
2022/01/18 03:15:25;;;;;;;4.53;1.65;;;;;;;;;;2119693;27;20038;-46
2022/01/18 03:16:26;;;;;;;5.18;2.08;;;;;;;;;;2114563;28;20472;-45
2022/01/18 03:17:27;;;;;;;3.85;2.15;;;;;;;;;;2114548;28;20047;-45
2022/01/18 03:18:28;;;;;;;6.65;2.53;;;;;;;;;;2119803;27;20126;-45
2022/01/18 03:19:29;;;;;;;6.07;2.45;;;;;;;;;;2122840;28;20487;-45
2022/01/18 03:20:30;;;;;;;4.17;2.13;;;;;;;;;;2122829;28;20051;-44
2022/01/18 03:21:31;;;;;;;4.07;2.00;;;;;;;;;;2120080;27;20137;-45
2022/01/18 03:22:33;;;;;;;4.63;1.90;;;;;;;;;;2123355;28;20487;-47
2022/01/18 03:23:34;;;;;;;;;;;;;;;;;;2122803;28;20054;-47
2022/01/18 03:24:48;;;;;;;4.28;2.20;;;;;;;;;;2121445;27;19959;-47
2022/01/18 03:25:55;;;;;;;3.70;2.05;;;;;;;;;;2123463;28;20050;-50
2022/01/18 03:28:16;;;;;;;4.82;1.70;;;;;;;;;;2122878;28;20380;-50
2022/01/18 03:29:17;;;;;;;6.22;2.38;;;;;;;;;;2120125;27;20567;-49
2022/01/18 03:30:18;;;;;;;3.42;1.98;;;;;;;;;;2121052;28;20059;-48
2022/01/18 03:31:19;;;;;;;4.38;1.50;;;;;;;;;;2122889;28;20046;-47
2022/01/18 03:32:20;;;;;;;3.65;1.52;;;;;;;;;;2120546;28;20046;-47
2022/01/18 03:33:22;;;;;;;3.53;1.30;;;;;;;;;;2114295;27;20046;-49
2022/01/18 03:34:23;;;;;;;3.72;1.38;;;;;;;;;;2114587;28;20489;-44
2022/01/18 03:35:24;;;;;;;2.30;1.42;;;;;;;;;;2119330;27;20066;-49
2022/01/18 03:36:25;;;;;;;3.42;1.25;;;;;;;;;;2123003;28;20047;-47
2022/01/18 03:37:26;;;;;;;2.40;1.30;;;;;;;;;;2122446;28;20043;-49
2022/01/18 03:38:30;;;;;;;3.87;1.43;;;;;;;;;;2119998;27;20047;-47
2022/01/18 03:39:30;;;;;;;4.03;1.35;;;;;;;;;;2122822;27;20095;-48
2022/01/18 03:40:32;;;;;;;2.90;1.57;;;;;;;;;;2120842;28;20487;-48
2022/01/18 03:41:33;;;;;;;1.45;1.05;;;;;;;;;;2121355;27;20510;-48
2022/01/18 03:42:41;;;;;;;3.10;1.20;;;;;;;;;;2122901;28;20050;-47
2022/01/18 03:43:42;;;;;;;3.13;1.02;;;;;;;;;;2120094;27;20122;-48
2022/01/18 03:44:45;;;;;;;1.60;1.10;;;;;;;;;;2122401;28;20047;-49
2022/01/18 03:45:54;;;;;;;2.55;1.17;;;;;;;;;;2122938;28;20050;-49
2022/01/18 03:46:55;;;;;;;3.88;1.00;;;;;;;;;;2117066;27;20043;-49
2022/01/18 03:47:59;;;;;;;2.60;1.17;;;;;;;;;;2114509;28;20052;-49
2022/01/18 03:49:02;;;;;;;1.48;0.93;;;;;;;;;;2114135;28;20545;-48
2022/01/18 03:50:04;;;;;;;5.47;1.20;;;;;;;;;;2120112;27;20046;-45
2022/01/18 03:51:06;;;;;;;2.55;1.13;;;;;;;;;;2122935;28;20047;-46
2022/01/18 03:52:07;;;;;;;2.38;1.20;;;;;;;;;;2120482;27;20514;-45
2022/01/18 03:53:10;;;;;;;1.90;1.10;;;;;;;;;;2114183;27;20056;-46
2022/01/18 03:54:13;;;;;;;2.45;1.20;;;;;;;;;;2114325;28;20126;-45
2022/01/18 03:55:15;;;;;;;1.55;0.93;;;;;;;;;;2117643;27;20135;-46
2022/01/18 03:56:16;;;;;;;2.35;1.15;;;;;;;;;;2122748;28;20402;-45
2022/01/18 03:57:18;;;;;;;2.47;1.10;;;;;;;;;;2122204;28;20051;-48
2022/01/18 03:58:19;;;;;;;4.85;0.90;;;;;;;;;;2120023;27;20525;-46
2022/01/18 03:59:20;;;;;;;2.45;1.25;;;;;;;;;;2122674;27;20146;-45
2022/01/18 04:00:22;;;;;;;3.35;1.20;;;;;;;;;;2120518;28;20050;-46
2022/01/18 04:01:23;;;;;;;2.20;1.00;;;;;;;;;;2121345;28;20046;-45
2022/01/18 04:02:27;;;;;;;2.22;1.23;;;;;;;;;;2122655;28;20449;-45
2022/01/18 04:03:28;;;;;;;4.53;1.23;;;;;;;;;;2120688;27;20552;-45
2022/01/18 04:04:29;;;;;;;2.65;1.20;;;;;;;;;;2122389;28;20051;-45
2022/01/18 04:05:30;;;;;;;3.95;1.40;;;;;;;;;;2122856;28;20499;-44
2022/01/18 04:06:31;;;;;;;1.60;0.93;;;;;;;;;;2119057;27;20558;-45
2022/01/18 04:07:32;;;;;;;3.65;1.13;;;;;;;;;;2122849;28;20039;-45
2022/01/18 04:08:33;;;;;;;2.03;1.10;;;;;;;;;;2122861;28;20130;-44
2022/01/18 04:09:35;;;;;;;3.40;1.60;;;;;;;;;;2118952;27;20042;-43
2022/01/18 04:10:36;;;;;;;2.47;1.35;;;;;;;;;;2122886;28;20043;-44
2022/01/18 04:11:37;;;;;;;4.32;1.55;;;;;;;;;;2120592;28;20434;-45
2022/01/18 04:12:39;;;;;;;2.33;1.40;;;;;;;;;;2121228;27;20126;-45
2022/01/18 04:13:40;;;;;;;3.17;1.10;;;;;;;;;;2122600;27;20086;-45
2022/01/18 04:14:40;;;;;;;6.27;1.20;;;;;;;;;;2119321;27;20415;-45
2022/01/18 04:15:42;;;;;;;2.35;1.02;;;;;;;;;;2121274;28;20295;-45
2022/01/18 04:16:56;;;;;;;2.33;1.40;;;;;;;;;;2122850;28;20126;-44
2022/01/18 04:25:47;;;;;;;2.72;1.27;;;;;;;;;;2116882;27;20047;-45
2022/01/18 04:26:02;;;;;;;1.58;0.82;;;;;;;;;;2094154;28;20498;-44
2022/01/18 04:27:03;;;;;;;3.15;1.40;;;;;;;;;;2115335;28;20134;-44
2022/01/18 04:28:13;;;;;;;1.77;1.05;;;;;;;;;;2122744;28;20039;-45
2022/01/18 04:29:14;;;;;;;2.22;1.20;;;;;;;;;;2119036;27;20051;-45
2022/01/18 04:30:15;;;;;;;1.87;1.10;;;;;;;;;;2122583;28;20401;-45
2022/01/18 04:31:16;;;;;;;3.17;1.50;;;;;;;;;;2122020;28;20532;-44
2022/01/18 04:32:17;;;;;;;2.92;1.30;;;;;;;;;;2119732;27;20130;-45
2022/01/18 04:33:18;;;;;;;1.83;1.00;;;;;;;;;;2122584;28;20492;-45
2022/01/18 04:34:19;;;;;;;4.22;1.60;;;;;;;;;;2121214;27;20039;-44
2022/01/18 04:35:20;;;;;;;4.28;1.33;;;;;;;;;;2120742;28;20107;-44
2022/01/18 04:36:21;;;;;;;3.92;1.40;;;;;;;;;;2122643;28;20039;-45
2022/01/18 04:37:22;;;;;;;4.28;1.40;;;;;;;;;;2120562;27;20465;-44
2022/01/18 04:38:23;;;;;;;2.83;1.15;;;;;;;;;;2122251;28;20474;-44
2022/01/18 04:39:25;;;;;;;2.65;1.27;;;;;;;;;;2122620;27;20047;-44
2022/01/18 04:40:29;;;;;;;4.78;1.52;;;;;;;;;;2119005;27;20557;-44
2022/01/18 04:41:31;;;;;;;3.17;1.88;;;;;;;;;;2122631;28;20039;-44
2022/01/18 04:42:40;;;;;;;2.58;1.52;;;;;;;;;;2122802;28;20070;-45
2022/01/18 04:43:51;;;;;;;4.45;1.40;;;;;;;;;;2119952;27;20081;-44
2022/01/18 04:48:47;;;;;;;1.85;0.95;;;;;;;;;;2119163;27;20043;-50
2022/01/18 04:49:48;;;;;;;3.88;1.70;;;;;;;;;;2122258;28;20495;-48
2022/01/18 04:50:50;;;;;;;2.90;1.30;;;;;;;;;;2122684;28;20055;-51
2022/01/18 04:51:51;;;;;;;1.60;1.17;;;;;;;;;;2118725;27;20143;-49
2022/01/18 04:52:52;;;;;;;1.60;0.98;;;;;;;;;;2122473;28;20126;-49
2022/01/18 04:53:55;;;;;;;3.50;1.27;;;;;;;;;;2122320;27;20094;-47
2022/01/18 04:55:00;;;;;;;2.58;1.10;;;;;;;;;;2119559;27;20044;-48
2022/01/18 04:56:05;;;;;;;2.60;1.30;;;;;;;;;;2122293;28;20168;-47
2022/01/18 04:58:26;;;;;;;2.28;1.40;;;;;;;;;;2114049;28;20047;-48
2022/01/18 04:59:27;;;;;;;2.67;1.45;;;;;;;;;;2114687;28;20101;-48
2022/01/18 05:00:28;;;;;;;4.95;1.58;;;;;;;;;;2119617;27;20126;-47
2022/01/18 05:01:29;;;;;;;2.88;1.42;;;;;;;;;;2122604;27;20043;-50
2022/01/18 05:02:30;;;;;;;2.15;1.20;;;;;;;;;;2121374;27;20496;-50
2022/01/18 05:03:31;;;;;;;2.83;1.40;;;;;;;;;;2122985;28;20046;-48
2022/01/18 05:04:33;;;;;;;2.92;1.75;;;;;;;;;;2123840;27;20047;-49
2022/01/18 05:05:36;;;;;;;3.03;1.40;;;;;;;;;;2121709;27;20107;-48
2022/01/18 05:06:38;;;;;;;3.70;1.67;;;;;;;;;;2123758;28;20479;-48
2022/01/18 05:07:39;;;;;;;3.00;1.60;;;;;;;;;;2123836;28;20038;-48
2022/01/18 05:08:40;;;;;;;2.15;1.30;;;;;;;;;;2120415;27;20047;-45
2022/01/18 05:09:43;;;;;;;3.25;1.60;;;;;;;;;;2123869;28;20360;-45
2022/01/18 05:10:50;;;;;;;3.38;1.50;;;;;;;;;;2123485;27;20126;-44
2022/01/18 05:11:57;;;;;;;2.35;1.23;;;;;;;;;;2121418;27;20095;-44
2022/01/18 05:13:09;;;;;;;2.70;1.35;;;;;;;;;;2123828;28;20043;-45
2022/01/18 05:14:20;;;;;;;4.57;1.70;;;;;;;;;;2120583;27;20043;-47
2022/01/18 05:15:38;;;;;;;2.70;1.35;;;;;;;;;;2123513;28;20067;-48
2022/01/18 05:16:50;;;;;;;2.70;1.73;;;;;;;;;;2121627;28;20154;-47
2022/01/18 05:18:12;;;;;;;2.47;1.58;;;;;;;;;;2122669;27;20138;-47
2022/01/18 05:19:21;;;;;;;3.25;1.27;;;;;;;;;;2123389;28;20051;-47
2022/01/18 05:20:41;;;;;;;3.97;2.17;;;;;;;;;;2121621;27;20038;-47
2022/01/18 05:23:04;;;;;;;5.25;1.73;;;;;;;;;;2122022;27;20047;-47
2022/01/18 05:24:05;;;;;;;2.92;1.67;;;;;;;;;;2123588;28;20479;-47
2022/01/18 05:25:07;;;;;;;2.28;1.52;;;;;;;;;;2121666;28;20433;-48
2022/01/18 05:26:08;;;;;;;3.38;1.10;;;;;;;;;;2121200;27;20094;-47
2022/01/18 05:27:10;;;;;;;3.05;1.70;;;;;;;;;;2123800;28;20047;-47
2022/01/18 05:28:10;;;;;;;1.92;1.00;;;;;;;;;;2120255;27;20043;-47
2022/01/18 05:29:12;;;;;;;3.40;1.63;;;;;;;;;;2123591;27;20399;-48
2022/01/18 05:30:12;;;;;;;4.10;1.27;;;;;;;;;;2123731;28;20176;-47
2022/01/18 05:31:14;;;;;;;3.92;1.50;;;;;;;;;;2119165;27;20529;-47
2022/01/18 05:32:14;;;;;;;2.38;1.33;;;;;;;;;;2123687;28;20058;-51
2022/01/18 05:33:18;;;;;;;3.05;1.30;;;;;;;;;;2123752;28;20039;-51
2022/01/18 05:34:19;;;;;;;2.70;1.60;;;;;;;;;;2118892;27;20134;-49
2022/01/18 05:35:20;;;;;;;2.47;1.30;;;;;;;;;;2123774;28;20047;-50
2022/01/18 05:36:22;;;;;;;7.20;1.50;;;;;;;;;;2123078;28;20474;-48
2022/01/18 05:37:24;;;;;;;2.13;1.30;;;;;;;;;;2122123;27;20118;-46
2022/01/18 05:38:24;;;;;;;2.22;1.20;;;;;;;;;;2123820;28;20130;-45
2022/01/18 05:39:25;;;;;;;3.90;2.00;;;;;;;;;;2120385;27;20042;-44
2022/01/18 05:40:27;;;;;;;3.80;2.10;;;;;;;;;;2122607;28;20039;-44
2022/01/18 05:41:28;;;;;;;2.17;1.40;;;;;;;;;;2123815;28;20125;-44
2022/01/18 05:42:30;;;;;;;2.70;1.30;;;;;;;;;;2120471;27;20139;-44
2022/01/18 05:43:31;;;;;;;3.92;1.77;;;;;;;;;;2123577;28;20456;-44
2022/01/18 05:44:32;;;;;;;2.63;1.48;;;;;;;;;;2123667;27;20046;-44
2022/01/18 05:45:33;;;;;;;1.92;1.20;;;;;;;;;;2119868;27;20470;-44
2022/01/18 05:46:34;;;;;;;3.97;1.52;;;;;;;;;;2123776;27;20043;-43
2022/01/18 05:47:36;;;;;;;3.38;1.65;;;;;;;;;;2122610;28;20254;-44
2022/01/18 05:48:38;;;;;;;5.75;2.70;;;;;;;;;;2121329;27;20043;-46
2022/01/18 05:49:39;;;;;;;4.03;2.70;;;;;;;;;;2123706;28;20122;-46
2022/01/18 05:50:40;;;;;;;3.67;2.50;;;;;;;;;;2122794;28;20157;-47
2022/01/18 05:51:41;;;;;;;4.70;2.78;;;;;;;;;;2122244;27;20490;-46
2022/01/18 05:52:43;;;;;;;4.95;2.05;;;;;;;;;;2123565;28;20525;-47
2022/01/18 05:53:44;;;;;;;4.60;2.53;;;;;;;;;;2121220;27;20054;-47
2022/01/18 05:54:45;;;;;;;6.82;2.80;;;;;;;;;;2122618;28;20476;-46
2022/01/18 05:55:46;;;;;;;4.88;2.70;;;;;;;;;;2123454;28;20044;-47
2022/01/18 05:56:48;;;;;;;4.90;2.63;;;;;;;;;;2119887;27;20157;-46
2022/01/18 05:57:50;;;;;;;4.97;2.42;;;;;;;;;;2123507;27;20121;-46
2022/01/18 05:58:51;;;;;;;2.53;1.58;;;;;;;;;;2123117;27;20051;-47
2022/01/18 05:59:54;;;;;;;6.07;2.40;;;;;;;;;;2121567;27;20055;-51
2022/01/18 06:00:55;;;;;;;8.05;2.50;;;;;;;;;;2123532;28;20356;-46
2022/01/18 06:02:02;;;;;;;4.32;2.67;;;;;;;;;;2121658;28;20045;-46
2022/01/18 06:03:12;;;;;;;5.05;2.55;;;;;;;;;;2121999;28;20171;-46
2022/01/18 06:06:50;;;;;;;5.95;3.00;;;;;;;;;;2123270;27;20092;-50
2022/01/18 06:06:54;;;;;;;4.95;2.75;;;;;;;;;;2097178;28;20082;-46
2022/01/18 06:07:55;;;;;;;6.78;3.50;;;;;;;;;;2114170;27;20491;-46
2022/01/18 06:08:56;;;;;;;3.80;2.15;;;;;;;;;;2123200;27;20184;-46
2022/01/18 06:09:57;;;;;;;5.97;2.70;;;;;;;;;;2123625;28;20043;-47
2022/01/18 06:10:58;;;;;;;3.47;2.10;;;;;;;;;;2119810;27;20176;-46
2022/01/18 06:11:59;;;;;;;5.60;2.05;;;;;;;;;;2123320;28;20647;-46
2022/01/18 06:13:03;;;;;;;4.47;1.93;;;;;;;;;;2123098;27;20321;-47
2022/01/18 06:14:06;;;;;;;4.75;2.55;;;;;;;;;;2120585;27;20275;-47
2022/01/18 06:15:08;;;;;;;6.55;2.80;;;;;;;;;;2123453;28;20146;-46
2022/01/18 06:16:08;;;;;;;;;;;;;;;;;;2123076;27;20525;-46
2022/01/18 06:17:10;;;;;;;6.30;2.08;;;;;;;;;;2122001;27;19963;-47
2022/01/18 06:18:11;;;;;;;8.02;2.90;;;;;;;;;;2123684;28;20088;-46
2022/01/18 06:19:12;;;;;;;3.50;2.45;;;;;;;;;;2121263;28;20039;-46
2022/01/18 06:20:13;;;;;;;5.18;2.65;;;;;;;;;;2114750;27;20093;-46
2022/01/18 06:21:14;;;;;;;5.20;2.50;;;;;;;;;;2114851;28;20528;-46
2022/01/18 06:22:15;;;;;;;7.97;3.17;;;;;;;;;;2117826;27;20035;-47
2022/01/18 06:23:17;;;;;;;6.28;3.53;;;;;;;;;;2123516;28;20134;-47
2022/01/18 06:24:18;;;;;;;4.43;2.60;;;;;;;;;;2123312;28;20191;-47
2022/01/18 06:25:39;;;;;;;4.97;2.40;;;;;;;;;;2121010;28;20193;-48
2022/01/18 06:26:40;;;;;;;5.32;2.40;;;;;;;;;;2123324;28;20039;-46
2022/01/18 06:27:42;;;;;;;6.78;3.10;;;;;;;;;;2119940;27;20074;-46
2022/01/18 06:28:43;;;;;;;9.18;3.42;;;;;;;;;;2123022;27;20102;-46
2022/01/18 06:29:50;;;;;;;5.22;2.42;;;;;;;;;;2123404;28;20552;-46
2022/01/18 06:30:51;;;;;;;4.53;2.38;;;;;;;;;;2119742;27;20452;-44
2022/01/18 06:31:52;;;;;;;4.43;2.20;;;;;;;;;;2123281;28;20051;-43
2022/01/18 06:32:53;;;;;;;4.40;2.67;;;;;;;;;;2122930;28;20176;-45
2022/01/18 06:33:54;;;;;;;9.63;4.10;;;;;;;;;;2121527;27;20132;-44
2022/01/18 06:34:57;;;;;;;6.13;3.22;;;;;;;;;;2123327;28;20051;-43
2022/01/18 06:35:58;;;;;;;9.02;3.80;;;;;;;;;;2122233;27;20142;-45
2022/01/18 06:37:00;;;;;;;8.57;2.92;;;;;;;;;;2122164;28;20125;-44
2022/01/18 06:38:01;;;;;;;5.00;2.72;;;;;;;;;;2123270;28;20115;-44
2022/01/18 06:39:02;;;;;;;4.93;2.20;;;;;;;;;;2119691;27;20576;-44
2022/01/18 06:40:04;;;;;;;4.97;2.78;;;;;;;;;;2123165;28;20084;-44
2022/01/18 06:41:05;;;;;;;4.97;2.53;;;;;;;;;;2123166;28;20047;-44
2022/01/18 06:42:07;;;;;;;3.73;2.27;;;;;;;;;;2119706;27;20138;-45
2022/01/18 06:43:07;;;;;;;5.72;2.97;;;;;;;;;;2123363;28;20055;-43
2022/01/18 06:44:09;;;;;;;4.90;2.38;;;;;;;;;;2123219;28;20184;-44
2022/01/18 06:45:11;;;;;;;4.13;2.08;;;;;;;;;;2120166;27;20043;-43
2022/01/18 06:46:12;;;;;;;3.60;2.33;;;;;;;;;;2123352;28;20046;-43
2022/01/18 06:47:13;;;;;;;5.57;3.05;;;;;;;;;;2122448;28;20043;-43
2022/01/18 06:48:14;;;;;;;5.18;2.38;;;;;;;;;;2120768;27;20575;-45
2022/01/18 06:49:15;;;;;;;6.18;3.45;;;;;;;;;;2123125;27;20053;-46
2022/01/18 06:50:16;;;;;;;6.55;2.67;;;;;;;;;;2119782;27;20040;-47
2022/01/18 06:51:17;;;;;;;4.47;2.50;;;;;;;;;;2122981;28;20043;-47
2022/01/18 06:52:19;;;;;;;4.40;2.45;;;;;;;;;;2123314;28;20055;-47
2022/01/18 06:53:20;;;;;;;6.05;2.65;;;;;;;;;;2121100;27;20441;-48
2022/01/18 06:54:21;;;;;;;5.63;2.65;;;;;;;;;;2123031;27;20095;-47
2022/01/18 06:55:22;;;;;;;7.28;3.28;;;;;;;;;;2123294;28;20092;-49
2022/01/18 06:56:25;;;;;;;4.30;2.00;;;;;;;;;;2118059;27;20039;-46
2022/01/18 06:57:26;;;;;;;3.75;2.30;;;;;;;;;;2114678;28;20126;-49
2022/01/18 06:58:28;;;;;;;4.53;2.28;;;;;;;;;;2114217;28;20043;-48
2022/01/18 06:59:30;;;;;;;3.65;2.08;;;;;;;;;;2121147;27;20126;-46
2022/01/18 07:00:31;;;;;;;5.75;2.55;;;;;;;;;;2123004;28;20039;-47
2022/01/18 07:01:32;;;;;;;5.28;3.22;;;;;;;;;;2120855;28;20558;-48